Time;durP1;ratioP1;P1;durP2;ratioP2;P2;SDS_P1;SDS_P2;PMS_P1;PMS_P2;Temp;Humidity;BMP_temperature;BMP_pressure;BME280_temperature;BME280_humidity;BME280_pressure;Samples;Min_cycle;Max_cycle;Signal;HPM_P1;HPM_P2
2023/10/02 00:01:23;;;;;;;12.03;9.23;;;17.60;1.00;;;;;;5091800;27;20572;-74
2023/10/02 00:04:16;;;;;;;8.87;8.00;;;17.50;1.00;;;;;;5108492;27;20544;-74
2023/10/02 00:06:38;;;;;;;8.93;8.03;;;17.50;1.00;;;;;;5101457;27;20538;-74
2023/10/02 00:09:06;;;;;;;8.90;8.00;;;17.40;1.00;;;;;;5096379;27;20478;-75
2023/10/02 00:11:35;;;;;;;9.00;7.97;;;17.40;1.00;;;;;;5095499;27;20682;-73
2023/10/02 00:14:19;;;;;;;10.40;9.00;;;17.40;1.00;;;;;;5089882;28;22415;-73
2023/10/02 00:17:00;;;;;;;11.63;9.17;;;17.40;1.00;;;;;;5090451;28;20979;-73
2023/10/02 00:19:35;;;;;;;9.67;8.40;;;17.40;1.00;;;;;;5112044;27;20948;-73
2023/10/02 00:22:06;;;;;;;9.53;8.53;;;17.30;1.00;;;;;;5111413;27;20475;-73
2023/10/02 00:24:37;;;;;;;10.30;8.80;;;17.40;1.00;;;;;;5112429;27;20464;-73
2023/10/02 00:27:05;;;;;;;12.93;9.40;;;17.40;1.00;;;;;;5107714;27;20998;-73
2023/10/02 00:29:32;;;;;;;10.67;8.80;;;17.40;1.00;;;;;;5106985;27;20490;-73
2023/10/02 00:32:00;;;;;;;8.80;7.90;;;17.40;1.00;;;;;;5109683;27;20470;-76
2023/10/02 00:34:35;;;;;;;9.10;8.20;;;17.30;1.00;;;;;;5117449;27;20665;-75
2023/10/02 00:37:08;;;;;;;8.97;8.07;;;17.40;1.00;;;;;;5094906;27;20479;-74
2023/10/02 00:39:37;;;;;;;11.90;9.50;;;17.40;1.00;;;;;;5087348;27;20849;-74
2023/10/02 00:42:15;;;;;;;9.87;8.87;;;17.50;1.00;;;;;;5106227;27;20596;-74
2023/10/02 00:44:56;;;;;;;9.70;8.57;;;17.50;1.00;;;;;;5103912;27;20463;-76
2023/10/02 00:47:41;;;;;;;9.10;8.20;;;17.50;1.00;;;;;;5105604;27;20425;-75
2023/10/02 00:52:59;;;;;;;10.13;8.63;;;17.50;1.00;;;;;;5114062;27;20467;-76
2023/10/02 00:55:32;;;;;;;9.97;9.07;;;17.50;1.00;;;;;;5112081;27;20451;-74
2023/10/02 00:57:59;;;;;;;9.97;8.57;;;17.50;1.00;;;;;;5093665;28;20467;-74
2023/10/02 01:00:35;;;;;;;9.60;8.60;;;17.50;1.00;;;;;;5112859;27;20458;-76
2023/10/02 01:03:04;;;;;;;10.27;9.23;;;17.60;1.00;;;;;;5111061;27;20892;-72
2023/10/02 01:05:42;;;;;;;13.40;9.80;;;17.60;1.00;;;;;;5111572;27;20572;-74
2023/10/02 01:08:23;;;;;;;10.13;9.20;;;17.60;1.00;;;;;;5101649;27;20958;-75
2023/10/02 01:10:57;;;;;;;9.43;7.83;;;17.60;1.00;;;;;;5108326;27;20462;-75
2023/10/02 01:13:28;;;;;;;10.40;9.33;;;17.60;1.00;;;;;;5115764;27;20459;-74
2023/10/02 01:15:56;;;;;;;8.70;7.90;;;17.60;1.00;;;;;;5114637;27;20466;-75
2023/10/02 01:18:27;;;;;;;8.90;8.10;;;17.60;1.00;;;;;;5094859;27;20998;-75
2023/10/02 01:20:56;;;;;;;10.13;8.13;;;17.70;1.00;;;;;;5096005;27;20499;-77
2023/10/02 01:23:26;;;;;;;9.53;7.90;;;17.80;1.00;;;;;;5112738;27;20470;-75
2023/10/02 01:25:57;;;;;;;9.80;8.17;;;17.80;1.00;;;;;;5105016;27;20445;-77
2023/10/02 01:28:26;;;;;;;8.27;6.70;;;17.80;1.00;;;;;;5103781;27;20530;-76
2023/10/02 01:30:55;;;;;;;10.33;8.03;;;17.90;1.00;;;;;;5114318;27;20962;-75
2023/10/02 01:33:22;;;;;;;8.23;7.17;;;18.00;1.00;;;;;;5110145;27;20502;-74
2023/10/02 01:35:50;;;;;;;6.33;5.73;;;18.00;1.00;;;;;;5112643;27;20463;-75
2023/10/02 01:38:22;;;;;;;9.13;7.37;;;18.10;1.00;;;;;;5114918;27;20549;-76
2023/10/02 01:40:53;;;;;;;8.80;7.00;;;18.10;1.00;;;;;;5109481;27;20963;-73
2023/10/02 01:43:24;;;;;;;8.90;6.80;;;18.20;1.00;;;;;;5110104;27;20567;-75
2023/10/02 01:45:56;;;;;;;8.20;7.37;;;18.20;1.00;;;;;;5113848;27;20810;-75
2023/10/02 01:48:44;;;;;;;7.60;6.73;;;18.20;1.00;;;;;;5101850;27;20963;-75
2023/10/02 01:51:25;;;;;;;7.73;6.93;;;18.20;1.00;;;;;;5110344;27;20451;-73
2023/10/02 01:53:54;;;;;;;9.83;7.90;;;18.20;1.00;;;;;;5113078;27;20565;-74
2023/10/02 01:56:22;;;;;;;9.00;7.20;;;18.20;1.00;;;;;;5108282;27;20462;-75
2023/10/02 01:58:51;;;;;;;8.60;6.40;;;18.20;1.00;;;;;;5095466;27;20467;-74
2023/10/02 02:01:20;;;;;;;7.17;6.47;;;18.30;1.00;;;;;;5113496;27;20452;-74
2023/10/02 02:03:49;;;;;;;8.53;6.70;;;18.20;1.00;;;;;;5110862;27;20504;-74
2023/10/02 02:06:20;;;;;;;33.47;30.03;;;18.10;1.00;;;;;;5108743;27;20516;-74
2023/10/02 02:08:53;;;;;;;8.00;7.17;;;18.00;1.00;;;;;;5108815;27;20558;-74
2023/10/02 02:11:21;;;;;;;7.83;6.87;;;18.00;1.00;;;;;;5110977;27;20472;-75
2023/10/02 02:13:49;;;;;;;7.57;6.50;;;17.90;1.00;;;;;;5101047;27;20490;-74
2023/10/02 02:16:25;;;;;;;9.70;6.90;;;17.80;1.00;;;;;;5112092;27;20546;-74
2023/10/02 02:18:54;;;;;;;8.37;7.53;;;17.80;1.00;;;;;;5115273;27;20453;-74
2023/10/02 02:21:24;;;;;;;8.27;6.80;;;17.90;1.00;;;;;;5108566;27;20542;-75
2023/10/02 02:24:03;;;;;;;8.90;6.90;;;17.90;1.00;;;;;;5112039;27;20920;-73
2023/10/02 02:26:31;;;;;;;8.50;7.60;;;18.00;1.00;;;;;;5101475;27;20451;-73
2023/10/02 02:28:58;;;;;;;7.60;6.67;;;18.00;1.00;;;;;;5105178;27;20461;-75
2023/10/02 02:31:32;;;;;;;8.17;7.37;;;18.00;1.00;;;;;;5104947;27;20530;-73
2023/10/02 02:34:02;;;;;;;9.40;7.43;;;17.90;1.00;;;;;;5110832;27;20941;-76
2023/10/02 02:36:34;;;;;;;9.67;7.50;;;17.80;1.00;;;;;;5101242;27;20585;-74
2023/10/02 02:39:15;;;;;;;9.77;8.00;;;17.90;1.00;;;;;;5108446;27;20496;-75
2023/10/02 02:41:44;;;;;;;9.00;7.20;;;17.80;1.00;;;;;;5103948;27;20464;-75
2023/10/02 02:44:29;;;;;;;10.17;7.80;;;17.80;1.00;;;;;;5087892;28;20567;-74
2023/10/02 02:46:59;;;;;;;7.90;6.60;;;17.80;1.00;;;;;;5109385;27;21068;-74
2023/10/02 02:49:25;;;;;;;10.50;8.20;;;17.90;1.00;;;;;;5107631;27;20959;-73
2023/10/02 02:51:55;;;;;;;11.47;8.10;;;17.90;1.00;;;;;;5113104;27;20459;-76
2023/10/02 02:54:28;;;;;;;11.53;9.40;;;17.80;1.00;;;;;;5107392;27;20896;-74
2023/10/02 02:57:00;;;;;;;8.73;7.83;;;17.60;1.00;;;;;;5101139;27;20469;-76
2023/10/02 02:59:28;;;;;;;9.60;7.90;;;17.50;1.00;;;;;;5113050;27;20449;-74
2023/10/02 03:02:08;;;;;;;10.13;7.53;;;17.50;1.00;;;;;;5114757;27;20977;-74
2023/10/02 03:04:38;;;;;;;8.80;7.50;;;17.50;1.00;;;;;;5101296;27;20506;-75
2023/10/02 03:07:29;;;;;;;8.17;6.40;;;17.50;1.00;;;;;;5099970;27;21000;-74
2023/10/02 03:09:58;;;;;;;9.30;7.30;;;17.50;1.00;;;;;;5108350;27;20514;-74
2023/10/02 03:12:25;;;;;;;7.83;7.03;;;17.40;1.00;;;;;;5108589;27;20468;-74
2023/10/02 03:14:54;;;;;;;12.60;8.60;;;17.30;1.00;;;;;;5110009;27;20535;-74
2023/10/02 03:17:28;;;;;;;7.73;6.90;;;17.10;1.00;;;;;;5112295;27;20464;-75
2023/10/02 03:19:55;;;;;;;10.03;7.73;;;17.00;1.00;;;;;;5111305;27;20468;-75
2023/10/02 03:22:24;;;;;;;11.17;7.93;;;17.00;1.00;;;;;;5106777;27;20587;-74
2023/10/02 03:24:51;;;;;;;8.00;7.20;;;17.00;1.00;;;;;;5109228;27;20491;-74
2023/10/02 03:27:21;;;;;;;10.07;7.53;;;16.90;1.00;;;;;;5107053;27;20549;-75
2023/10/02 03:29:49;;;;;;;9.37;6.80;;;16.90;1.00;;;;;;5104814;27;20423;-74
2023/10/02 03:32:16;;;;;;;9.73;7.90;;;16.70;1.00;;;;;;5109760;27;20534;-74
2023/10/02 03:34:48;;;;;;;9.53;7.67;;;16.70;1.00;;;;;;5112588;27;20511;-75
2023/10/02 03:37:21;;;;;;;13.73;8.80;;;16.50;1.00;;;;;;5116450;27;20465;-74
2023/10/02 03:40:13;;;;;;;9.20;7.10;;;16.50;1.00;;;;;;5111749;27;20466;-73
2023/10/02 03:42:40;;;;;;;11.60;7.37;;;16.50;1.00;;;;;;5109380;27;20425;-75
2023/10/02 03:45:08;;;;;;;10.77;8.10;;;16.50;1.00;;;;;;5110597;27;20478;-74
2023/10/02 03:47:35;;;;;;;10.73;8.77;;;16.50;1.00;;;;;;5114753;27;20446;-74
2023/10/02 03:50:11;;;;;;;11.00;7.90;;;16.60;1.00;;;;;;5115043;27;20457;-71
2023/10/02 03:52:41;;;;;;;9.53;8.43;;;16.60;1.00;;;;;;5113492;27;20471;-73
2023/10/02 03:55:17;;;;;;;9.80;8.50;;;16.60;1.00;;;;;;5099743;27;20544;-74
2023/10/02 03:57:54;;;;;;;8.17;6.93;;;16.70;1.00;;;;;;5086874;28;20478;-72
2023/10/02 04:00:27;;;;;;;8.90;7.50;;;16.70;1.00;;;;;;5087044;28;21042;-75
2023/10/02 04:02:56;;;;;;;8.80;7.90;;;16.70;1.00;;;;;;5085901;27;20910;-74
2023/10/02 04:05:31;;;;;;;9.60;7.60;;;16.60;1.00;;;;;;5085195;27;20469;-73
2023/10/02 04:08:12;;;;;;;9.70;7.63;;;16.60;1.00;;;;;;5109977;27;20432;-73
2023/10/02 04:10:55;;;;;;;10.37;7.83;;;16.50;1.00;;;;;;5109591;27;20948;-74
2023/10/02 04:13:25;;;;;;;12.13;8.47;;;16.60;1.00;;;;;;5110237;27;20526;-74
2023/10/02 04:16:28;;;;;;;11.30;8.50;;;16.60;1.00;;;;;;5108534;27;20549;-78
2023/10/02 04:18:46;;;;;;;10.93;8.30;;;16.60;1.00;;;;;;5103155;27;20501;-75
2023/10/02 04:21:19;;;;;;;10.63;8.23;;;16.60;1.00;;;;;;5110553;27;20461;-74
2023/10/02 04:23:45;;;;;;;11.70;9.20;;;16.60;1.00;;;;;;5109402;27;20423;-74
2023/10/02 04:26:19;;;;;;;10.83;8.63;;;16.60;1.00;;;;;;5091274;28;20477;-72
2023/10/02 04:28:54;;;;;;;9.73;8.80;;;16.60;1.00;;;;;;5094397;28;20457;-69
2023/10/02 04:31:22;;;;;;;10.17;8.23;;;16.40;1.00;;;;;;5103092;27;20542;-70
2023/10/02 04:34:14;;;;;;;9.80;7.40;;;16.40;1.00;;;;;;5088382;28;20842;-68
2023/10/02 04:36:41;;;;;;;10.10;8.67;;;16.30;1.00;;;;;;5099998;27;20470;-70
2023/10/02 04:39:51;;;;;;;11.60;7.70;;;16.40;1.00;;;;;;5101512;27;20531;-69
2023/10/02 04:42:11;;;;;;;11.73;9.37;;;16.40;1.00;;;;;;5111848;27;20454;-70
2023/10/02 04:44:44;;;;;;;10.57;8.43;;;16.40;1.00;;;;;;5106483;27;20421;-73
2023/10/02 04:47:17;;;;;;;10.40;8.70;;;16.40;1.00;;;;;;5094421;27;20477;-69
2023/10/02 04:52:53;;;;;;;10.30;8.40;;;16.10;1.00;;;;;;5104500;27;20547;-69
2023/10/02 04:55:22;;;;;;;14.30;11.57;;;16.00;1.00;;;;;;5100485;27;20537;-69
2023/10/02 04:57:52;;;;;;;10.07;7.70;;;16.00;1.00;;;;;;5111217;27;20464;-69
2023/10/02 05:00:33;;;;;;;9.90;7.87;;;16.00;1.00;;;;;;5101763;27;20464;-68
2023/10/02 05:03:09;;;;;;;10.50;8.57;;;15.90;1.00;;;;;;5110315;27;21298;-69
2023/10/02 05:05:42;;;;;;;14.80;9.63;;;15.90;1.00;;;;;;5111318;27;20458;-68
2023/10/02 05:08:18;;;;;;;13.40;10.20;;;15.80;1.00;;;;;;5113128;27;20476;-68
2023/10/02 05:10:47;;;;;;;12.83;8.90;;;15.80;1.00;;;;;;5106084;27;20465;-70
2023/10/02 05:13:13;;;;;;;11.43;8.97;;;15.70;1.00;;;;;;5114080;27;20472;-74
2023/10/02 05:16:06;;;;;;;10.70;8.47;;;15.70;1.00;;;;;;5109939;27;20554;-69
2023/10/02 05:18:33;;;;;;;12.30;9.40;;;15.60;1.00;;;;;;5103368;27;20528;-71
2023/10/02 05:21:01;;;;;;;11.63;9.80;;;15.50;1.00;;;;;;5104192;27;20457;-71
2023/10/02 05:23:31;;;;;;;12.30;10.17;;;15.40;1.00;;;;;;5095030;27;20899;-68
2023/10/02 05:26:01;;;;;;;13.27;11.10;;;15.50;1.00;;;;;;5116481;27;21253;-71
2023/10/02 05:28:42;;;;;;;10.70;9.10;;;15.50;1.00;;;;;;5109167;27;20535;-72
2023/10/02 05:31:12;;;;;;;23.67;11.13;;;15.50;1.00;;;;;;5108899;27;20515;-71
2023/10/02 05:33:39;;;;;;;12.43;9.80;;;15.60;1.00;;;;;;5101600;27;20466;-70
2023/10/02 05:36:08;;;;;;;11.63;10.23;;;15.60;1.00;;;;;;5082893;28;20522;-73
2023/10/02 05:38:38;;;;;;;12.90;9.43;;;15.60;1.00;;;;;;5110701;27;20476;-73
2023/10/02 05:41:12;;;;;;;13.17;9.47;;;15.70;1.00;;;;;;5098427;27;20481;-72
2023/10/02 05:43:55;;;;;;;10.13;8.83;;;15.80;1.00;;;;;;5091752;27;20506;-69
2023/10/02 05:46:23;;;;;;;15.93;9.87;;;15.80;1.00;;;;;;5109479;27;20454;-69
2023/10/02 05:49:00;;;;;;;10.60;9.40;;;15.80;1.00;;;;;;5104967;27;20504;-69
2023/10/02 05:51:45;;;;;;;16.90;10.03;;;15.80;1.00;;;;;;5085223;27;20481;-69
2023/10/02 05:54:14;;;;;;;12.23;10.03;;;15.90;1.00;;;;;;5104857;27;20860;-68
2023/10/02 05:56:41;;;;;;;14.43;10.80;;;15.90;1.00;;;;;;5093750;27;20829;-69
2023/10/02 05:59:09;;;;;;;12.33;8.90;;;15.90;1.00;;;;;;5111134;27;20539;-70
2023/10/02 06:01:38;;;;;;;14.73;9.70;;;16.00;1.00;;;;;;5107839;27;20537;-70
2023/10/02 06:04:05;;;;;;;13.00;9.10;;;16.00;1.00;;;;;;5107970;27;20550;-70
2023/10/02 06:06:37;;;;;;;12.63;10.07;;;16.10;1.00;;;;;;5098707;27;20954;-71
2023/10/02 06:09:12;;;;;;;10.80;9.50;;;16.10;1.00;;;;;;5091761;28;20479;-74
2023/10/02 06:14:22;;;;;;;12.80;10.13;;;16.00;1.00;;;;;;5085309;28;20443;-70
2023/10/02 06:16:49;;;;;;;13.53;10.57;;;16.10;1.00;;;;;;5099102;27;20493;-68
2023/10/02 06:19:16;;;;;;;16.70;11.50;;;16.20;1.00;;;;;;5111198;27;20469;-69
2023/10/02 06:21:47;;;;;;;13.20;10.43;;;16.30;1.00;;;;;;5110009;27;20948;-74
2023/10/02 06:24:15;;;;;;;12.70;10.20;;;16.30;1.00;;;;;;5105861;27;20538;-68
2023/10/02 06:26:57;;;;;;;13.00;9.80;;;16.40;1.00;;;;;;5111537;27;20969;-71
2023/10/02 06:29:28;;;;;;;13.10;9.50;;;16.50;1.00;;;;;;5104807;27;20504;-72
2023/10/02 06:34:50;;;;;;;13.50;9.70;;;16.50;1.00;;;;;;5102947;27;20464;-69
2023/10/02 06:37:19;;;;;;;15.00;11.00;;;16.60;1.00;;;;;;5109735;27;20460;-72
2023/10/02 06:40:02;;;;;;;13.77;10.83;;;16.70;1.00;;;;;;5107631;27;21379;-70
2023/10/02 06:42:31;;;;;;;10.77;9.20;;;16.80;1.00;;;;;;5101413;27;21074;-70
2023/10/02 06:45:01;;;;;;;12.27;10.57;;;16.90;1.00;;;;;;5111218;27;20458;-74
2023/10/02 06:47:30;;;;;;;12.90;10.53;;;17.00;1.00;;;;;;5107709;27;20480;-70
2023/10/02 06:50:03;;;;;;;13.30;10.60;;;17.10;1.00;;;;;;5110463;27;20461;-70
2023/10/02 06:52:32;;;;;;;15.50;11.17;;;17.10;1.00;;;;;;5099613;27;21348;-69
2023/10/02 06:55:01;;;;;;;14.60;11.60;;;17.20;1.00;;;;;;5108844;27;20452;-69
2023/10/02 06:57:31;;;;;;;13.97;10.50;;;17.30;1.00;;;;;;5107148;27;20455;-70
2023/10/02 07:00:03;;;;;;;17.33;10.47;;;17.40;1.00;;;;;;5093279;27;21008;-71
2023/10/02 07:02:32;;;;;;;14.00;10.40;;;17.40;1.00;;;;;;5114146;27;20450;-69
2023/10/02 07:04:59;;;;;;;12.60;10.50;;;17.50;1.00;;;;;;5101732;27;20491;-71
2023/10/02 07:07:30;;;;;;;17.30;12.40;;;17.60;1.00;;;;;;5092151;27;20945;-69
2023/10/02 07:10:07;;;;;;;11.90;10.03;;;17.60;1.00;;;;;;5110415;27;20509;-70
2023/10/02 07:12:39;;;;;;;14.53;11.03;;;17.70;1.00;;;;;;5100844;27;20447;-69
2023/10/02 07:15:12;;;;;;;14.20;11.63;;;17.80;1.00;;;;;;5107704;27;20910;-70
2023/10/02 07:17:47;;;;;;;13.50;10.73;;;17.80;1.00;;;;;;5103663;27;20519;-70
2023/10/02 07:20:15;;;;;;;15.30;11.17;;;17.90;1.00;;;;;;5113840;27;20509;-74
2023/10/02 07:22:43;;;;;;;14.47;10.30;;;17.90;1.00;;;;;;5113431;27;20447;-72
2023/10/02 07:25:10;;;;;;;12.30;10.50;;;18.00;1.00;;;;;;5102376;27;20459;-70
2023/10/02 07:27:40;;;;;;;17.63;11.47;;;18.10;1.00;;;;;;5116751;27;20947;-70
2023/10/02 07:30:09;;;;;;;16.50;10.50;;;18.20;1.00;;;;;;5110691;27;20471;-73
2023/10/02 07:32:36;;;;;;;16.10;10.73;;;18.20;1.00;;;;;;5110658;27;20446;-71
2023/10/02 07:35:21;;;;;;;16.73;10.73;;;18.30;1.00;;;;;;5108483;27;20452;-70
2023/10/02 07:37:57;;;;;;;13.87;9.97;;;18.40;1.00;;;;;;5096706;27;20477;-69
2023/10/02 07:40:26;;;;;;;15.00;11.00;;;18.50;1.00;;;;;;5113990;27;20486;-69
2023/10/02 07:42:55;;;;;;;14.60;10.63;;;18.50;1.00;;;;;;5111649;27;20446;-71
2023/10/02 07:45:25;;;;;;;13.90;11.40;;;18.60;1.00;;;;;;5106242;27;20463;-71
2023/10/02 07:48:12;;;;;;;16.23;11.23;;;18.70;1.00;;;;;;5109430;27;20462;-69
2023/10/02 07:50:41;;;;;;;15.20;10.90;;;18.90;1.00;;;;;;5094880;27;20465;-70
2023/10/02 07:53:12;;;;;;;14.83;10.70;;;19.00;1.00;;;;;;5090967;28;20461;-70
2023/10/02 07:55:42;;;;;;;14.37;10.53;;;19.10;1.00;;;;;;5088895;27;20448;-74
2023/10/02 07:58:13;;;;;;;12.50;10.67;;;19.20;1.00;;;;;;5103774;27;20504;-74
2023/10/02 08:00:41;;;;;;;15.00;11.03;;;19.40;1.00;;;;;;5100445;27;21003;-76
2023/10/02 08:05:57;;;;;;;12.70;10.53;;;19.50;1.00;;;;;;5108390;27;20547;-74
2023/10/02 08:08:32;;;;;;;13.23;10.93;;;19.70;1.00;;;;;;5113137;27;21007;-75
2023/10/02 08:11:02;;;;;;;13.60;10.83;;;19.80;1.00;;;;;;5117786;27;20590;-76
2023/10/02 08:13:33;;;;;;;15.80;11.20;;;19.90;1.00;;;;;;5114382;27;20594;-75
2023/10/02 08:16:08;;;;;;;17.27;11.77;;;20.10;1.00;;;;;;5094752;28;20540;-75
2023/10/02 08:18:55;;;;;;;17.03;12.13;;;20.30;1.00;;;;;;5100197;27;20872;-74
2023/10/02 08:21:34;;;;;;;12.50;10.30;;;20.60;1.00;;;;;;5095810;27;20925;-75
2023/10/02 08:24:03;;;;;;;13.37;10.40;;;20.70;1.00;;;;;;5109259;27;20454;-75
2023/10/02 08:26:38;;;;;;;14.93;10.30;;;21.00;1.00;;;;;;5112342;27;20450;-75
2023/10/02 08:29:08;;;;;;;15.80;10.87;;;21.20;1.00;;;;;;5113106;27;20997;-74
2023/10/02 08:31:36;;;;;;;13.87;10.83;;;21.60;1.00;;;;;;5089457;28;20471;-75
2023/10/02 08:34:09;;;;;;;12.50;10.73;;;21.90;1.00;;;;;;5094239;28;20832;-75
2023/10/02 08:36:37;;;;;;;12.37;10.53;;;22.10;1.00;;;;;;5091141;27;20607;-74
2023/10/02 08:39:05;;;;;;;11.23;10.00;;;22.30;1.00;;;;;;5094583;28;20454;-75
2023/10/02 08:41:43;;;;;;;12.20;9.60;;;22.50;1.00;;;;;;5092989;27;20545;-71
2023/10/02 08:44:12;;;;;;;10.90;9.10;;;22.90;1.00;;;;;;5109029;27;20972;-73
2023/10/02 08:46:42;;;;;;;13.10;10.50;;;23.30;1.00;;;;;;5107178;27;20640;-71
2023/10/02 08:49:10;;;;;;;14.93;10.50;;;23.80;1.00;;;;;;5111721;27;20543;-72
2023/10/02 08:51:38;;;;;;;11.50;10.30;;;24.30;1.00;;;;;;5093736;28;20583;-71
2023/10/02 08:54:07;;;;;;;12.77;9.83;;;24.50;1.00;;;;;;5091345;28;20245;-72
2023/10/02 08:56:43;;;;;;;11.30;9.83;;;25.10;1.00;;;;;;5096759;27;20455;-72
2023/10/02 08:59:16;;;;;;;10.27;9.17;;;25.70;1.00;;;;;;5090687;27;20461;-74
2023/10/02 09:01:46;;;;;;;11.40;9.80;;;26.40;1.00;;;;;;5109153;27;20469;-74
2023/10/02 09:04:28;;;;;;;11.70;8.83;;;26.70;1.00;;;;;;5099097;27;20459;-74
2023/10/02 09:06:59;;;;;;;12.37;9.30;;;27.20;1.00;;;;;;5091648;28;20430;-74
2023/10/02 09:09:35;;;;;;;9.20;7.90;;;27.70;1.00;;;;;;5102523;27;21320;-73
2023/10/02 09:12:03;;;;;;;12.47;9.37;;;27.90;1.00;;;;;;5113632;27;20473;-74
2023/10/02 09:14:42;;;;;;;9.70;8.67;;;28.50;1.00;;;;;;5107783;27;20879;-75
2023/10/02 09:17:16;;;;;;;11.73;8.90;;;29.10;1.00;;;;;;5100747;27;20554;-73
2023/10/02 09:19:48;;;;;;;12.00;9.03;;;29.60;1.00;;;;;;5105164;27;20459;-74
2023/10/02 09:22:17;;;;;;;10.30;8.90;;;30.40;1.00;;;;;;5103249;27;20493;-75
2023/10/02 09:24:57;;;;;;;10.13;8.93;;;30.90;1.00;;;;;;5106278;27;20925;-74
2023/10/02 09:27:27;;;;;;;11.30;9.00;;;31.10;1.00;;;;;;5091655;28;20920;-74
2023/10/02 09:32:51;;;;;;;10.30;9.17;;;30.20;1.00;;;;;;5109743;27;20909;-75
2023/10/02 09:35:29;;;;;;;13.03;9.37;;;30.20;1.00;;;;;;5104187;27;20460;-73
2023/10/02 09:38:02;;;;;;;9.87;8.67;;;30.00;1.00;;;;;;5110579;27;22124;-75
2023/10/02 09:40:53;;;;;;;8.93;8.00;;;29.70;1.00;;;;;;5111264;27;20453;-74
2023/10/02 09:43:21;;;;;;;10.23;8.33;;;29.40;1.00;;;;;;5109809;27;20665;-76
2023/10/02 09:45:53;;;;;;;9.80;8.77;;;29.30;1.00;;;;;;5112972;27;20451;-75
2023/10/02 09:51:19;;;;;;;10.63;8.77;;;28.40;1.00;;;;;;5107296;27;20962;-75
2023/10/02 09:54:04;;;;;;;10.13;8.33;;;27.70;1.00;;;;;;5079945;28;21057;-76
2023/10/02 09:56:41;;;;;;;8.70;7.80;;;27.40;1.00;;;;;;5100142;27;20951;-75
2023/10/02 09:59:16;;;;;;;9.53;8.00;;;27.20;1.00;;;;;;5108725;27;20464;-77
2023/10/02 10:08:28;;;;;;;9.87;7.50;;;28.00;1.00;;;;;;5094699;27;20458;-76
2023/10/02 10:11:10;;;;;;;8.40;7.20;;;27.70;1.00;;;;;;5109487;27;20482;-77
2023/10/02 10:13:46;;;;;;;10.23;7.80;;;28.80;1.00;;;;;;5112588;27;20470;-76
2023/10/02 10:16:34;;;;;;;9.37;7.57;;;30.20;1.00;;;;;;5106988;27;20492;-76
2023/10/02 10:19:27;;;;;;;9.60;7.90;;;31.40;1.00;;;;;;5111805;27;20536;-71
2023/10/02 10:21:56;;;;;;;9.10;7.90;;;32.20;1.00;;;;;;5087433;28;20450;-74
2023/10/02 10:24:51;;;;;;;8.87;7.97;;;32.90;1.00;;;;;;5107570;27;20461;-74
2023/10/02 10:27:54;;;;;;;8.70;7.73;;;32.80;1.00;;;;;;5107873;27;20503;-71
2023/10/02 10:30:44;;;;;;;7.47;6.63;;;31.90;1.00;;;;;;5106328;27;20510;-74
2023/10/02 10:33:36;;;;;;;8.10;7.07;;;31.30;1.00;;;;;;5101512;27;20575;-74
2023/10/02 10:36:25;;;;;;;11.10;8.13;;;30.70;1.00;;;;;;5097761;27;20465;-75
2023/10/02 10:38:51;;;;;;;9.40;7.40;;;30.90;1.00;;;;;;5101505;27;20473;-73
2023/10/02 10:41:39;;;;;;;9.70;8.00;;;31.40;1.00;;;;;;5104695;27;20509;-74
2023/10/02 10:44:15;;;;;;;11.33;8.60;;;31.70;1.00;;;;;;5089992;27;20556;-73
2023/10/02 10:46:48;;;;;;;8.97;8.07;;;31.60;1.00;;;;;;5086308;28;20458;-76
2023/10/02 10:49:19;;;;;;;9.17;6.93;;;31.40;1.00;;;;;;5105319;27;20565;-75
2023/10/02 10:51:52;;;;;;;7.83;7.03;;;30.50;1.00;;;;;;5094166;27;20446;-74
2023/10/02 10:54:25;;;;;;;9.60;7.77;;;30.30;1.00;;;;;;5108798;27;20937;-74
2023/10/02 10:57:18;;;;;;;8.83;7.30;;;30.70;1.00;;;;;;5100421;27;20842;-72
2023/10/02 10:59:46;;;;;;;8.27;7.50;;;31.20;1.00;;;;;;5105262;27;20487;-71
2023/10/02 11:02:16;;;;;;;8.10;7.10;;;32.20;1.00;;;;;;5101834;27;20472;-71
2023/10/02 11:04:47;;;;;;;8.13;6.33;;;32.50;1.00;;;;;;5088376;27;20450;-72
2023/10/02 11:07:25;;;;;;;11.90;7.60;;;32.40;1.00;;;;;;5103593;27;20481;-75
2023/10/02 11:12:56;;;;;;;10.23;6.90;;;31.20;1.00;;;;;;5098927;27;20581;-73
2023/10/02 11:15:46;;;;;;;5.67;4.93;;;32.20;1.00;;;;;;5079549;28;20472;-73
2023/10/02 11:18:20;;;;;;;7.83;6.00;;;33.40;1.00;;;;;;5072719;28;20482;-73
2023/10/02 11:20:49;;;;;;;9.57;6.50;;;33.80;1.00;;;;;;5066689;28;20582;-73
2023/10/02 11:23:23;;;;;;;8.40;6.47;;;34.00;1.00;;;;;;5078624;28;20552;-74
2023/10/02 11:25:55;;;;;;;7.70;5.90;;;34.00;1.00;;;;;;5073973;27;20435;-72
2023/10/02 11:28:31;;;;;;;7.83;6.87;;;34.10;1.00;;;;;;5081012;28;20493;-72
2023/10/02 11:31:29;;;;;;;7.30;6.50;;;35.00;1.00;;;;;;5082824;28;20462;-72
2023/10/02 11:34:00;;;;;;;7.23;6.53;;;36.00;1.00;;;;;;5070190;28;20571;-73
2023/10/02 11:36:28;;;;;;;8.43;6.80;;;36.90;1.00;;;;;;5066144;28;20455;-73
2023/10/02 11:38:56;;;;;;;10.93;7.73;;;36.70;1.00;;;;;;5067123;28;20459;-72
2023/10/02 11:41:23;;;;;;;11.07;8.40;;;36.00;1.00;;;;;;5062073;28;20565;-71
2023/10/02 11:43:54;;;;;;;9.37;7.10;;;36.30;1.00;;;;;;5063483;28;20514;-75
2023/10/02 11:46:21;;;;;;;9.10;7.53;;;36.70;1.00;;;;;;5064234;28;20951;-71
2023/10/02 11:48:51;;;;;;;9.67;8.03;;;37.10;1.00;;;;;;5065260;28;20463;-72
2023/10/02 11:51:18;;;;;;;9.07;7.30;;;37.30;1.00;;;;;;5064359;28;20490;-71
2023/10/02 11:53:45;;;;;;;9.77;8.00;;;37.60;1.00;;;;;;5074232;28;20617;-73
2023/10/02 11:56:12;;;;;;;8.20;7.40;;;38.00;1.00;;;;;;5082864;28;20555;-73
2023/10/02 11:58:38;;;;;;;8.93;8.03;;;38.90;1.00;;;;;;5084173;28;20462;-71
2023/10/02 12:01:07;;;;;;;8.80;7.63;;;39.10;1.00;;;;;;5084754;28;20830;-72
2023/10/02 12:03:36;;;;;;;9.73;7.90;;;39.30;1.00;;;;;;5068121;28;20471;-72
2023/10/02 12:06:03;;;;;;;11.17;9.30;;;39.40;1.00;;;;;;5081499;28;20509;-71
2023/10/02 12:08:33;;;;;;;9.70;8.00;;;38.70;1.00;;;;;;5084845;28;20512;-73
2023/10/02 12:11:01;;;;;;;12.00;8.60;;;38.90;1.00;;;;;;5086558;28;21531;-74
2023/10/02 12:13:29;;;;;;;10.83;9.13;;;38.20;1.00;;;;;;5087582;28;20463;-74
2023/10/02 12:15:57;;;;;;;9.13;8.27;;;37.80;1.00;;;;;;5066656;28;20831;-72
2023/10/02 12:18:26;;;;;;;9.70;8.80;;;37.00;1.00;;;;;;5082170;28;20474;-73
2023/10/02 12:20:56;;;;;;;9.00;8.03;;;36.20;1.00;;;;;;5082983;28;20476;-73
2023/10/02 12:23:23;;;;;;;10.60;8.53;;;35.40;1.00;;;;;;5075966;28;20483;-72
2023/10/02 12:25:50;;;;;;;9.87;8.80;;;35.30;1.00;;;;;;5074413;28;20837;-72
2023/10/02 12:28:17;;;;;;;9.60;8.70;;;35.40;1.00;;;;;;5070967;28;20467;-72
2023/10/02 12:30:44;;;;;;;9.57;8.57;;;35.30;1.00;;;;;;5073719;28;20463;-72
2023/10/02 12:33:14;;;;;;;12.77;10.10;;;34.20;1.00;;;;;;5051801;28;20551;-74
2023/10/02 12:35:42;;;;;;;8.97;8.07;;;33.20;1.00;;;;;;5063316;28;20489;-74
2023/10/02 12:38:09;;;;;;;11.00;8.90;;;32.10;1.00;;;;;;5057133;28;20537;-76
2023/10/02 12:40:36;;;;;;;11.83;8.87;;;31.70;1.00;;;;;;5052074;28;20461;-73
2023/10/02 12:43:03;;;;;;;8.30;7.40;;;31.60;1.00;;;;;;5049480;28;21021;-74
2023/10/02 12:45:35;;;;;;;7.87;7.07;;;31.30;1.00;;;;;;5046568;28;21567;-74
2023/10/02 12:48:06;;;;;;;10.53;7.83;;;31.00;1.00;;;;;;5047084;28;20530;-72
2023/10/02 12:50:38;;;;;;;12.30;10.27;;;30.70;1.00;;;;;;5044216;28;20460;-73
2023/10/02 12:53:07;;;;;;;12.30;8.47;;;30.40;1.00;;;;;;5052834;28;20464;-73
2023/10/02 12:55:36;;;;;;;8.20;7.23;;;30.20;1.00;;;;;;5057648;28;20470;-72
2023/10/02 12:58:04;;;;;;;8.57;7.67;;;29.90;1.00;;;;;;5069357;28;20540;-73
2023/10/02 13:00:31;;;;;;;9.50;7.90;;;29.70;1.00;;;;;;5068796;28;20448;-74
2023/10/02 13:03:02;;;;;;;9.30;7.60;;;29.50;1.00;;;;;;5073686;28;20477;-72
2023/10/02 13:05:29;;;;;;;9.80;8.20;;;29.10;1.00;;;;;;5073086;28;20488;-72
2023/10/02 13:07:58;;;;;;;10.40;8.80;;;28.90;1.00;;;;;;5067283;28;20473;-74
2023/10/02 13:10:28;;;;;;;10.77;9.30;;;28.80;1.00;;;;;;5067151;28;20474;-74
2023/10/02 13:12:57;;;;;;;10.70;8.70;;;28.90;1.00;;;;;;5071461;28;21260;-73
2023/10/02 13:15:25;;;;;;;9.40;7.93;;;28.90;1.00;;;;;;5067375;27;20430;-73
2023/10/02 13:17:53;;;;;;;13.47;12.17;;;29.00;1.00;;;;;;5067204;28;20462;-74
2023/10/02 13:20:21;;;;;;;10.20;8.67;;;29.00;1.00;;;;;;5054871;28;20476;-73
2023/10/02 13:22:48;;;;;;;9.47;7.63;;;28.80;1.00;;;;;;5071153;28;20474;-74
2023/10/02 13:25:16;;;;;;;9.77;8.00;;;28.80;1.00;;;;;;5072976;28;20540;-73
2023/10/02 13:27:47;;;;;;;9.37;8.10;;;28.70;1.00;;;;;;5074058;28;20983;-75
2023/10/02 13:30:18;;;;;;;9.83;8.23;;;28.80;1.00;;;;;;5071176;28;20509;-73
2023/10/02 13:32:45;;;;;;;11.60;8.57;;;28.80;1.00;;;;;;5065179;28;20929;-73
2023/10/02 13:35:12;;;;;;;9.63;7.60;;;28.80;1.00;;;;;;5050272;28;20509;-73
2023/10/02 13:37:39;;;;;;;11.97;8.83;;;28.90;1.00;;;;;;5047206;28;20435;-72
2023/10/02 13:40:18;;;;;;;11.63;8.63;;;28.70;1.00;;;;;;5053186;28;21211;-74
2023/10/02 13:42:49;;;;;;;17.03;13.37;;;28.50;1.00;;;;;;5048597;28;20525;-72
2023/10/02 13:45:18;;;;;;;10.07;8.00;;;28.50;1.00;;;;;;5047036;28;20471;-79